.
WxDataArchive / Data Records for 2010-03-07
2010-03-06 March 2010 2010-03-08

Data Records for Sunday, 07 March 2010

Time	Temp	Chill	HIndex	Humid	Dewpt	 Wind 	HiWind	WindDir	Rain 	Barom 
-----	----	-----	------	-----	-----	------	------	-------	-----	----- 
00:00	27.6	27.6	27.6	81	22.5	0	0	---	0.00	30.306 
00:05	27.5	27.5	27.5	81	22.4	0	0	---	0.00	30.306 
00:10	27.5	27.5	27.5	81	22.4	0	0	---	0.00	30.306 
00:15	27.3	27.3	27.3	81	22.3	0	0	---	0.00	30.303 
00:20	27.2	27.2	27.2	81	22.2	0	0	---	0.00	30.303 
00:25	27.0	27.0	27.0	81	22.0	0	0	---	0.00	30.303 
00:30	26.9	26.9	26.9	81	21.9	0	0	---	0.00	30.302 
00:35	26.7	26.7	26.7	81	21.7	0	0	---	0.00	30.302 
00:40	26.6	26.6	26.6	81	21.6	0	0	---	0.00	30.302 
00:45	26.6	26.6	26.6	82	21.9	0	0	---	0.00	30.303 
00:50	26.6	26.6	26.6	82	21.9	0	0	---	0.00	30.303 
00:55	26.6	26.6	26.6	83	22.1	0	0	---	0.00	30.303 
01:00	26.4	26.4	26.4	83	22.0	0	0	---	0.00	30.305 
01:05	26.4	26.4	26.4	83	22.0	0	0	---	0.00	30.305 
01:10	26.7	26.7	26.7	84	22.5	0	1	270	0.00	30.305 
01:15	27.2	27.2	27.2	84	23.0	0	0	---	0.00	30.302 
01:20	27.3	27.3	27.3	84	23.1	0	0	---	0.00	30.302 
01:25	27.3	27.3	27.3	83	22.8	0	0	---	0.00	30.302 
01:30	27.3	27.3	27.3	82	22.5	0	0	---	0.00	30.300 
01:35	27.2	27.2	27.2	82	22.4	0	0	---	0.00	30.300 
01:40	27.5	27.5	27.5	83	23.0	0	0	---	0.00	30.300 
01:45	27.6	27.6	27.6	82	22.8	0	1	270	0.00	30.298 
01:50	27.8	27.8	27.8	82	23.0	0	0	---	0.00	30.298 
01:55	27.8	27.8	27.8	81	22.7	0	0	---	0.00	30.298 
02:00	27.6	27.6	27.6	81	22.5	0	0	---	0.00	30.298 
02:05	27.5	27.5	27.5	81	22.4	0	0	---	0.00	30.298 
02:10	27.5	27.5	27.5	81	22.4	0	0	---	0.00	30.298 
02:15	27.3	27.3	27.3	81	22.3	0	0	---	0.00	30.293 
02:20	27.2	27.2	27.2	81	22.2	0	0	---	0.00	30.293 
02:25	27.2	27.2	27.2	82	22.4	0	0	---	0.00	30.293 
02:30	27.3	27.3	27.3	82	22.5	0	0	---	0.00	30.294 
02:35	27.5	27.5	27.5	82	22.7	0	0	---	0.00	30.294 
02:40	27.2	27.2	27.2	81	22.2	0	0	---	0.00	30.294 
02:45	27.0	27.0	27.0	81	22.0	0	0	---	0.00	30.291 
02:50	26.7	26.7	26.7	81	21.7	0	0	---	0.00	30.291 
02:55	26.3	26.3	26.3	81	21.3	0	0	---	0.00	30.291 
03:00	26.0	26.0	26.0	81	21.0	0	0	---	0.00	30.287 
03:05	25.7	25.7	25.7	81	20.7	0	0	---	0.00	30.287 
03:10	25.6	25.6	25.6	82	20.9	0	0	---	0.00	30.287 
03:15	25.4	25.4	25.4	82	20.7	0	0	---	0.00	30.291 
03:20	25.1	25.1	25.1	82	20.4	0	0	---	0.00	30.291 
03:25	24.8	24.8	24.8	82	20.1	0	0	---	0.00	30.291 
03:30	24.5	24.5	24.5	82	19.8	0	0	---	0.00	30.290 
03:35	24.4	24.4	24.4	82	19.7	0	0	---	0.00	30.290 
03:40	24.1	24.1	24.1	83	19.7	0	0	---	0.00	30.290 
03:45	23.8	23.8	23.8	83	19.4	0	0	---	0.00	30.287 
03:50	23.6	23.6	23.6	83	19.2	0	0	---	0.00	30.287 
03:55	23.5	23.5	23.5	84	19.4	0	0	---	0.00	30.287 
04:00	23.5	23.5	23.5	85	19.7	0	0	---	0.00	30.284 
04:05	23.3	23.3	23.3	85	19.5	0	0	---	0.00	30.284 
04:10	23.2	23.2	23.2	85	19.4	0	0	---	0.00	30.284 
04:15	23.2	23.2	23.2	85	19.4	0	0	---	0.00	30.284 
04:20	23.2	23.2	23.2	86	19.6	0	0	---	0.00	30.284 
04:25	23.0	23.0	23.0	86	19.4	0	0	---	0.00	30.284 
04:30	22.9	22.9	22.9	86	19.4	0	0	---	0.00	30.282 
04:35	22.9	22.9	22.9	86	19.4	0	0	---	0.00	30.282 
04:40	22.7	22.7	22.7	86	19.2	0	0	---	0.00	30.282 
04:45	22.5	22.5	22.5	87	19.2	0	0	---	0.00	30.282 
04:50	22.4	22.4	22.4	87	19.1	0	0	---	0.00	30.282 
04:55	22.4	22.4	22.4	87	19.1	0	0	---	0.00	30.282 
05:00	22.4	22.4	22.4	87	19.1	0	0	---	0.00	30.286 
05:05	22.2	22.2	22.2	87	18.9	0	0	---	0.00	30.286 
05:10	22.2	22.2	22.2	87	18.9	0	0	---	0.00	30.286 
05:15	22.1	22.1	22.1	87	18.8	0	0	---	0.00	30.286 
05:20	21.9	21.9	21.9	87	18.6	0	0	---	0.00	30.286 
05:25	21.8	21.8	21.8	87	18.5	0	0	---	0.00	30.286 
05:30	21.6	21.6	21.6	88	18.6	0	0	---	0.00	30.284 
05:35	21.6	21.6	21.6	88	18.6	0	0	---	0.00	30.284 
05:40	21.4	21.4	21.4	88	18.4	0	0	---	0.00	30.284 
05:45	21.1	21.1	21.1	87	17.8	0	0	---	0.00	30.286 
05:50	21.0	21.0	21.0	88	18.0	0	0	---	0.00	30.286 
05:55	20.8	20.8	20.8	88	17.8	0	0	---	0.00	30.286 
06:00	20.8	20.8	20.8	88	17.8	0	0	---	0.00	30.285 
06:05	20.6	20.6	20.6	88	17.6	0	0	---	0.00	30.285 
06:10	20.5	20.5	20.5	88	17.5	0	0	---	0.00	30.285 
06:15	20.5	20.5	20.5	88	17.5	0	0	---	0.00	30.289 
06:20	20.3	20.3	20.3	88	17.3	0	0	---	0.00	30.289 
06:25	20.2	20.2	20.2	88	17.2	0	0	---	0.00	30.289 
06:30	20.2	20.2	20.2	88	17.2	0	0	---	0.00	30.290 
06:35	20.3	20.3	20.3	88	17.3	0	0	---	0.00	30.290 
06:40	20.3	20.3	20.3	89	17.6	0	0	---	0.00	30.290 
06:45	20.3	20.3	20.3	89	17.6	0	0	---	0.00	30.292 
06:50	20.2	20.2	20.2	89	17.5	0	0	---	0.00	30.292 
06:55	20.2	20.2	20.2	88	17.2	0	0	---	0.00	30.292 
07:00	20.0	20.0	20.0	88	17.0	0	0	---	0.00	30.287 
07:05	19.9	19.9	19.9	88	16.9	0	0	---	0.00	30.287 
07:10	19.7	19.7	19.7	89	17.0	0	0	---	0.00	30.287 
07:15	19.5	19.5	19.5	89	16.8	0	0	---	0.00	30.292 
07:20	19.5	19.5	19.5	89	16.8	0	0	---	0.00	30.292 
07:25	19.7	19.7	19.7	89	17.0	0	0	---	0.00	30.292 
07:30	19.9	19.9	19.9	89	17.2	0	0	---	0.00	30.292 
07:35	20.2	20.2	20.2	89	17.5	0	0	---	0.00	30.292 
07:40	20.6	20.6	20.6	90	18.1	0	0	---	0.00	30.292 
07:45	21.3	21.3	21.3	91	19.1	0	0	---	0.00	30.292 
07:50	22.1	22.1	22.1	91	19.9	0	0	---	0.00	30.292 
07:55	22.9	22.9	22.9	91	20.7	0	0	---	0.00	30.292 
08:00	23.6	23.6	23.6	91	21.4	0	0	---	0.00	30.293 
08:05	24.1	24.1	24.1	91	21.9	0	0	---	0.00	30.293 
08:10	24.7	24.7	24.7	92	22.7	0	0	---	0.00	30.293 
08:15	25.6	25.6	25.6	92	23.6	0	0	---	0.00	30.300 
08:20	26.7	26.7	26.7	92	24.7	0	0	---	0.00	30.300 
08:25	27.8	27.8	27.8	91	25.5	0	0	---	0.00	30.300 
08:30	28.4	28.4	28.4	90	25.8	0	1	158	0.00	30.296 
08:35	29.0	29.0	29.0	89	26.2	0	2	225	0.00	30.296 
08:40	29.7	29.7	29.7	88	26.6	1	4	248	0.00	30.296 
08:45	30.6	30.6	30.6	84	26.4	2	5	248	0.00	30.293 
08:50	31.3	31.3	31.3	80	25.9	1	6	248	0.00	30.293 
08:55	32.2	32.2	32.2	78	26.1	1	3	248	0.00	30.293 
09:00	32.9	32.9	32.9	75	25.9	1	3	248	0.00	30.289 
09:05	33.7	33.7	33.7	73	26.0	0	2	248	0.00	30.289 
09:10	34.6	34.6	34.6	71	26.2	0	2	248	0.00	30.289 
09:15	35.5	35.5	35.5	69	26.4	0	2	248	0.00	30.283 
09:20	36.2	36.2	36.2	65	25.6	1	3	248	0.00	30.283 
09:25	36.9	36.9	36.9	65	26.3	0	2	248	0.00	30.283 
09:30	37.6	37.6	37.6	63	26.2	1	4	248	0.00	30.276 
09:35	38.3	38.3	38.3	61	26.0	0	2	248	0.00	30.276 
09:40	39.2	39.2	39.2	60	26.5	0	1	248	0.00	30.276 
09:45	39.9	39.9	39.9	59	26.7	0	2	248	0.00	30.274 
09:50	40.1	40.1	40.1	56	25.7	1	3	248	0.00	30.274 
09:55	40.2	40.2	40.2	56	25.8	1	3	248	0.00	30.274 
10:00	40.8	40.8	40.8	56	26.3	0	2	248	0.00	30.270 
10:05	41.2	41.2	41.2	54	25.8	1	4	248	0.00	30.270 
10:10	41.1	41.1	41.1	53	25.3	1	5	248	0.00	30.270 
10:15	41.2	41.2	41.2	53	25.4	2	5	248	0.00	30.272 
10:20	41.2	41.2	41.2	52	24.9	2	6	248	0.00	30.272 
10:25	41.3	41.3	41.3	53	25.5	2	6	248	0.00	30.272 
10:30	41.9	41.9	41.9	53	26.0	1	6	248	0.00	30.270 
10:35	42.5	42.5	42.5	53	26.6	1	3	248	0.00	30.270 
10:40	43.2	43.2	43.2	52	26.8	1	3	248	0.00	30.270 
10:45	43.8	43.8	43.8	51	26.9	1	4	248	0.00	30.259 
10:50	44.1	44.1	44.1	50	26.7	1	5	90	0.00	30.259 
10:55	44.5	44.5	44.5	50	27.0	1	4	90	0.00	30.259 
11:00	44.8	44.8	44.8	48	26.3	1	3	112	0.00	30.252 
11:05	44.8	44.8	44.8	50	27.3	1	4	90	0.00	30.252 
11:10	45.1	45.1	45.1	47	26.1	2	6	90	0.00	30.252 
11:15	45.2	45.2	45.2	49	27.2	2	6	90	0.00	30.241 
11:20	45.7	45.7	45.7	46	26.1	1	4	90	0.00	30.241 
11:25	46.1	46.1	46.1	47	27.0	1	3	112	0.00	30.241 
11:30	46.0	46.0	46.0	45	25.9	1	3	270	0.00	30.234 
11:35	45.7	45.7	45.7	46	26.1	1	5	270	0.00	30.234 
11:40	46.0	46.0	46.0	46	26.4	1	4	90	0.00	30.234 
11:45	46.4	46.4	46.4	46	26.8	1	4	248	0.00	30.224 
11:50	46.8	46.8	46.8	46	27.1	1	5	112	0.00	30.224 
11:55	47.1	47.1	47.1	42	25.2	2	5	90	0.00	30.224 
12:00	47.1	47.1	47.1	43	25.8	2	5	248	0.00	30.217 
12:05	47.1	47.1	47.1	42	25.2	1	4	248	0.00	30.217 
12:10	47.4	47.4	47.4	43	26.0	1	4	315	0.00	30.217 
12:15	47.9	47.9	47.9	41	25.3	0	3	270	0.00	30.210 
12:20	48.5	48.5	48.5	39	24.7	1	5	270	0.00	30.210 
12:25	48.9	48.9	48.9	42	26.8	1	4	248	0.00	30.210 
12:30	48.9	48.9	48.9	38	24.4	1	7	90	0.00	30.207 
12:35	48.9	48.9	48.9	38	24.4	1	5	270	0.00	30.207 
12:40	48.9	48.9	48.9	36	23.1	2	6	270	0.00	30.207 
12:45	48.8	48.8	48.8	35	22.4	2	6	248	0.00	30.204 
12:50	48.9	48.9	48.9	35	22.5	2	4	248	0.00	30.204 
12:55	49.2	49.2	49.2	36	23.4	2	5	248	0.00	30.204 
13:00	49.4	49.4	49.4	38	24.9	1	6	248	0.00	30.196 
13:05	49.5	49.5	49.5	37	24.3	2	4	248	0.00	30.196 
13:10	49.9	49.9	49.9	39	25.9	2	7	248	0.00	30.196 
13:15	50.2	50.2	50.2	39	26.2	1	2	248	0.00	30.184 
13:20	49.9	49.9	49.9	35	23.3	1	5	248	0.00	30.184 
13:25	49.4	49.4	49.4	36	23.6	1	3	112	0.00	30.184 
13:30	49.2	49.2	49.2	35	22.7	1	4	248	0.00	30.178 
13:35	49.1	49.1	49.1	36	23.3	1	4	248	0.00	30.178 
13:40	49.1	49.1	49.1	39	25.2	1	4	68	0.00	30.178 
13:45	49.2	49.2	49.2	35	22.7	2	5	248	0.00	30.173 
13:50	49.4	49.4	49.4	35	22.9	0	2	90	0.00	30.173 
13:55	49.8	49.8	49.8	35	23.3	1	3	90	0.00	30.173 
14:00	50.4	50.4	50.4	35	23.8	1	3	90	0.00	30.167 
14:05	50.7	50.7	50.7	39	26.7	2	5	248	0.00	30.167 
14:10	50.7	50.7	50.7	35	24.1	2	7	248	0.00	30.167 
14:15	50.8	50.8	50.8	36	24.8	1	4	248	0.00	30.160 
14:20	51.1	51.1	51.1	36	25.1	1	4	248	0.00	30.160 
14:25	51.4	51.4	51.4	38	26.7	1	3	270	0.00	30.160 
14:30	51.4	51.4	51.4	35	24.7	2	6	248	0.00	30.158 
14:35	51.3	51.3	51.3	36	25.3	1	5	248	0.00	30.158 
14:40	50.8	50.8	50.8	35	24.1	3	7	248	0.00	30.158 
14:45	50.1	50.1	50.1	37	24.9	1	4	112	0.00	30.154 
14:50	49.9	49.9	49.9	38	25.3	2	6	90	0.00	30.154 
14:55	50.1	50.1	50.1	36	24.2	2	5	225	0.00	30.154 
15:00	50.5	50.5	50.5	37	25.2	1	2	248	0.00	30.151 
15:05	51.0	51.0	51.0	34	23.6	2	6	248	0.00	30.151 
15:10	51.6	51.6	51.6	33	23.4	1	3	270	0.00	30.151 
15:15	52.0	52.0	52.0	34	24.5	1	3	270	0.00	30.140 
15:20	52.0	52.0	52.0	36	25.9	1	3	135	0.00	30.140 
15:25	52.3	52.3	52.3	35	25.5	1	2	270	0.00	30.140 
15:30	52.5	52.5	52.5	37	27.0	1	3	292	0.00	30.136 
15:35	52.5	52.5	52.5	33	24.2	1	3	248	0.00	30.136 
15:40	52.3	52.3	52.3	35	25.5	1	4	248	0.00	30.136 
15:45	52.0	52.0	52.0	35	25.2	1	4	270	0.00	30.132 
15:50	51.7	51.7	51.7	35	24.9	1	4	112	0.00	30.132 
15:55	51.6	51.6	51.6	34	24.2	1	4	248	0.00	30.132 
16:00	51.9	51.9	51.9	34	24.4	1	4	248	0.00	30.127 
16:05	52.2	52.2	52.2	34	24.7	0	3	248	0.00	30.127 
16:10	52.2	52.2	52.2	29	20.9	0	1	270	0.00	30.127 
16:15	52.0	52.0	52.0	30	21.5	1	3	270	0.00	30.128 
16:20	51.9	51.9	51.9	31	22.2	0	2	270	0.00	30.128 
16:25	51.7	51.7	51.7	34	24.2	1	5	90	0.00	30.128 
16:30	51.9	51.9	51.9	30	21.5	1	3	270	0.00	30.126 
16:35	51.9	51.9	51.9	31	22.2	1	2	270	0.00	30.126 
16:40	52.2	52.2	52.2	30	21.7	1	4	248	0.00	30.126 
16:45	52.2	52.2	52.2	30	21.7	2	5	248	0.00	30.126 
16:50	52.2	52.2	52.2	31	22.5	1	3	248	0.00	30.126 
16:55	51.9	51.9	51.9	31	22.2	0	3	248	0.00	30.126 
17:00	51.4	51.4	51.4	32	22.5	0	1	248	0.00	30.123 
17:05	51.1	51.1	51.1	32	22.3	0	2	248	0.00	30.123 
17:10	50.8	50.8	50.8	32	22.0	1	3	248	0.00	30.123 
17:15	50.5	50.5	50.5	36	24.6	0	3	248	0.00	30.125 
17:20	50.1	50.1	50.1	38	25.5	0	1	248	0.00	30.125 
17:25	49.6	49.6	49.6	39	25.7	0	1	248	0.00	30.125 
17:30	49.2	49.2	49.2	40	25.9	0	1	248	0.00	30.125 
17:35	48.9	48.9	48.9	41	26.2	0	1	248	0.00	30.125 
17:40	48.6	48.6	48.6	43	27.1	0	1	248	0.00	30.125 
17:45	48.3	48.3	48.3	43	26.9	0	1	248	0.00	30.126 
17:50	47.9	47.9	47.9	44	27.0	0	0	---	0.00	30.126 
17:55	47.6	47.6	47.6	45	27.3	0	0	---	0.00	30.126 
18:00	47.1	47.1	47.1	45	26.9	0	0	---	0.00	30.125 
18:05	46.8	46.8	46.8	45	26.6	0	0	---	0.00	30.125 
18:10	46.4	46.4	46.4	46	26.8	0	0	---	0.00	30.125 
18:15	46.1	46.1	46.1	47	27.0	0	0	---	0.00	30.125 
18:20	45.8	45.8	45.8	47	26.7	0	0	---	0.00	30.125 
18:25	45.7	45.7	45.7	49	27.6	0	0	---	0.00	30.125 
18:30	45.5	45.5	45.5	49	27.5	0	0	---	0.00	30.130 
18:35	45.5	45.5	45.5	49	27.5	0	0	---	0.00	30.130 
18:40	45.5	45.5	45.5	49	27.5	0	0	---	0.00	30.130 
18:45	45.4	45.4	45.4	49	27.4	0	0	---	0.00	30.132 
18:50	45.2	45.2	45.2	50	27.7	0	0	---	0.00	30.132 
18:55	45.1	45.1	45.1	50	27.6	0	0	---	0.00	30.132 
19:00	44.9	44.9	44.9	51	27.9	0	0	---	0.00	30.132 
19:05	44.9	44.9	44.9	50	27.4	0	0	---	0.00	30.132 
19:10	44.8	44.8	44.8	51	27.8	0	0	---	0.00	30.132 
19:15	44.8	44.8	44.8	51	27.8	0	0	---	0.00	30.127 
19:20	44.6	44.6	44.6	52	28.1	0	0	---	0.00	30.127 
19:25	44.6	44.6	44.6	52	28.1	0	0	---	0.00	30.127 
19:30	44.6	44.6	44.6	53	28.5	0	0	---	0.00	30.123 
19:35	44.6	44.6	44.6	53	28.5	0	0	---	0.00	30.123 
19:40	44.6	44.6	44.6	54	29.0	0	1	248	0.00	30.123 
19:45	44.8	44.8	44.8	55	29.6	0	1	202	0.00	30.127 
19:50	44.8	44.8	44.8	54	29.2	0	0	---	0.00	30.127 
19:55	44.9	44.9	44.9	56	30.2	0	1	202	0.00	30.127 
20:00	45.4	45.4	45.4	57	31.1	0	4	202	0.00	30.128 
20:05	45.7	45.7	45.7	59	32.2	1	4	248	0.00	30.128 
20:10	45.8	45.8	45.8	60	32.7	1	4	248	0.00	30.128 
20:15	45.8	45.8	45.8	62	33.5	2	6	248	0.00	30.119 
20:20	45.8	45.8	45.8	62	33.5	1	5	248	0.00	30.119 
20:25	45.5	45.5	45.5	64	34.0	1	5	248	0.00	30.119 
20:30	45.4	45.4	45.4	65	34.3	1	5	270	0.00	30.120 
20:35	45.1	45.1	45.1	67	34.8	1	2	270	0.00	30.120 
20:40	44.8	44.8	44.8	69	35.3	0	2	248	0.00	30.120 
20:45	44.5	44.5	44.5	70	35.3	1	4	248	0.00	30.123 
20:50	44.2	44.2	44.2	72	35.8	1	4	248	0.00	30.123 
20:55	43.9	43.9	43.9	74	36.2	2	4	248	0.00	30.123 
21:00	43.6	43.6	43.6	75	36.2	2	5	248	0.00	30.127 
21:05	43.3	43.3	43.3	77	36.6	1	3	248	0.00	30.127 
21:10	43.1	43.1	43.1	77	36.4	1	3	248	0.00	30.127 
21:15	42.9	42.9	42.9	78	36.5	1	4	248	0.00	30.118 
21:20	42.8	42.8	42.8	79	36.7	0	2	248	0.00	30.118 
21:25	42.6	42.6	42.6	80	36.9	0	3	248	0.00	30.118 
21:30	42.6	42.6	42.6	80	36.9	2	4	248	0.00	30.118 
21:35	42.5	42.5	42.5	81	37.1	0	3	248	0.00	30.118 
21:40	42.5	42.5	42.5	81	37.1	0	2	248	0.00	30.118 
21:45	42.5	42.5	42.5	81	37.1	0	1	248	0.00	30.127 
21:50	42.3	42.3	42.3	81	36.9	0	1	248	0.00	30.127 
21:55	42.3	42.3	42.3	81	36.9	0	0	---	0.00	30.127 
22:00	42.2	42.2	42.2	82	37.1	0	0	---	0.00	30.132 
22:05	42.2	42.2	42.2	82	37.1	0	0	---	0.00	30.132 
22:10	42.1	42.1	42.1	82	37.0	0	0	---	0.00	30.132 
22:15	42.1	42.1	42.1	83	37.3	0	0	---	0.00	30.131 
22:20	42.1	42.1	42.1	83	37.3	0	0	---	0.00	30.131 
22:25	41.9	41.9	41.9	84	37.4	0	1	248	0.00	30.131 
22:30	41.8	41.8	41.8	84	37.3	0	0	---	0.00	30.128 
22:35	41.8	41.8	41.8	84	37.3	0	0	---	0.00	30.128 
22:40	41.6	41.6	41.6	85	37.4	0	1	248	0.00	30.128 
22:45	41.6	41.6	41.6	85	37.4	0	0	---	0.00	30.128 
22:50	41.5	41.5	41.5	85	37.3	0	0	---	0.00	30.128 
22:55	41.5	41.5	41.5	86	37.6	0	0	---	0.00	30.128 
23:00	41.3	41.3	41.3	86	37.4	0	0	---	0.00	30.123 
23:05	41.2	41.2	41.2	87	37.6	0	0	---	0.00	30.123 
23:10	41.2	41.2	41.2	87	37.6	0	0	---	0.00	30.123 
23:15	41.1	41.1	41.1	88	37.8	0	0	---	0.00	30.120 
23:20	41.1	41.1	41.1	88	37.8	0	0	---	0.00	30.120 
23:25	41.1	41.1	41.1	88	37.8	0	1	248	0.00	30.120 
23:30	41.1	41.1	41.1	88	37.8	0	0	---	0.00	30.115 
23:35	41.1	41.1	41.1	88	37.8	0	0	---	0.00	30.115 
23:40	41.1	41.1	41.1	89	38.1	0	1	248	0.00	30.115 
23:45	40.9	40.9	40.9	89	37.9	0	0	---	0.00	30.112 
23:50	40.9	40.9	40.9	89	37.9	0	0	---	0.00	30.112 
23:55	40.9	40.9	40.9	89	37.9	0	0	---	0.00	30.112 

CoCoRaHS
IN-AL-39
A2 Web Hosting
Creative Commons License
GoDaddy
search engine by freefind advanced

loaded 2018-11-13 02:01:53 • last modified 2010-11-18 10:43:29
Privacy PolicyDisclaimer
• wx.awcolley.com is powered by PmWiki v.2002016 •
• all content (unless otherwise noted) © 2018 A W Colley